Terminal Aerodrome Forecast
Issued by NWS

Home | Current Version | Previous Version | Text Only | Print | Product List | Glossary On
Versions: 1 2 3 4 5 6 7 8 9 10 11 12 13 14 15 16
000
FTUS43 KDLH 201700
TAFHIB
TAF
KHIB 201724Z 2018/2118 01006KT P6SM SKC
     FM210800 18004KT P6SM BKN050
     FM211400 33014G25KT P6SM BKN050=

USA.gov is the U.S. government's official web portal to all federal, state and local government web resources and services.